sensor_id;sensor_type;location;lat;lon;timestamp;P1;durP1;ratioP1;P2;durP2;ratioP2
45909;SDS011;31622;55.416;37.840;2024-02-23T00:00:03;5.05;;;3.58;;
45909;SDS011;31622;55.416;37.840;2024-02-23T00:02:31;4.53;;;3.20;;
45909;SDS011;31622;55.416;37.840;2024-02-23T00:04:57;4.35;;;3.15;;
45909;SDS011;31622;55.416;37.840;2024-02-23T00:07:22;3.67;;;2.83;;
45909;SDS011;31622;55.416;37.840;2024-02-23T00:09:48;4.28;;;3.08;;
45909;SDS011;31622;55.416;37.840;2024-02-23T00:12:14;4.53;;;3.10;;
45909;SDS011;31622;55.416;37.840;2024-02-23T00:14:40;6.63;;;2.53;;
45909;SDS011;31622;55.416;37.840;2024-02-23T00:17:05;16.05;;;3.03;;
45909;SDS011;31622;55.416;37.840;2024-02-23T00:19:31;4.07;;;3.03;;
45909;SDS011;31622;55.416;37.840;2024-02-23T00:21:57;4.22;;;2.78;;
45909;SDS011;31622;55.416;37.840;2024-02-23T00:24:27;4.25;;;3.15;;
45909;SDS011;31622;55.416;37.840;2024-02-23T00:26:53;4.25;;;3.05;;
45909;SDS011;31622;55.416;37.840;2024-02-23T00:29:19;3.63;;;2.50;;
45909;SDS011;31622;55.416;37.840;2024-02-23T00:31:45;3.53;;;2.47;;
45909;SDS011;31622;55.416;37.840;2024-02-23T00:34:10;3.65;;;2.85;;
45909;SDS011;31622;55.416;37.840;2024-02-23T00:36:41;4.13;;;3.00;;
45909;SDS011;31622;55.416;37.840;2024-02-23T00:39:07;3.30;;;2.70;;
45909;SDS011;31622;55.416;37.840;2024-02-23T00:41:34;3.70;;;2.70;;
45909;SDS011;31622;55.416;37.840;2024-02-23T00:44:00;3.30;;;2.47;;
45909;SDS011;31622;55.416;37.840;2024-02-23T00:46:25;3.70;;;2.80;;
45909;SDS011;31622;55.416;37.840;2024-02-23T00:48:51;3.08;;;2.60;;
45909;SDS011;31622;55.416;37.840;2024-02-23T00:51:17;4.03;;;3.00;;
45909;SDS011;31622;55.416;37.840;2024-02-23T00:53:42;3.83;;;2.60;;
45909;SDS011;31622;55.416;37.840;2024-02-23T00:56:08;3.40;;;2.60;;
45909;SDS011;31622;55.416;37.840;2024-02-23T00:58:34;3.55;;;2.45;;
45909;SDS011;31622;55.416;37.840;2024-02-23T01:01:00;3.67;;;2.60;;
45909;SDS011;31622;55.416;37.840;2024-02-23T01:03:25;3.22;;;2.22;;
45909;SDS011;31622;55.416;37.840;2024-02-23T01:05:51;3.65;;;2.50;;
45909;SDS011;31622;55.416;37.840;2024-02-23T01:08:17;3.22;;;2.30;;
45909;SDS011;31622;55.416;37.840;2024-02-23T01:10:43;3.92;;;2.25;;
45909;SDS011;31622;55.416;37.840;2024-02-23T01:13:08;3.65;;;2.63;;
45909;SDS011;31622;55.416;37.840;2024-02-23T01:15:34;3.10;;;2.42;;
45909;SDS011;31622;55.416;37.840;2024-02-23T01:18:00;3.45;;;2.55;;
45909;SDS011;31622;55.416;37.840;2024-02-23T01:20:25;3.17;;;2.30;;
45909;SDS011;31622;55.416;37.840;2024-02-23T01:22:51;3.30;;;2.33;;
45909;SDS011;31622;55.416;37.840;2024-02-23T01:25:17;4.68;;;2.53;;
45909;SDS011;31622;55.416;37.840;2024-02-23T01:27:43;4.07;;;2.53;;
45909;SDS011;31622;55.416;37.840;2024-02-23T01:30:09;3.33;;;2.42;;
45909;SDS011;31622;55.416;37.840;2024-02-23T01:32:35;3.25;;;2.22;;
45909;SDS011;31622;55.416;37.840;2024-02-23T01:35:04;5.10;;;2.35;;
45909;SDS011;31622;55.416;37.840;2024-02-23T01:40:02;4.35;;;2.60;;
45909;SDS011;31622;55.416;37.840;2024-02-23T01:42:28;3.55;;;2.47;;
45909;SDS011;31622;55.416;37.840;2024-02-23T01:44:53;3.67;;;2.65;;
45909;SDS011;31622;55.416;37.840;2024-02-23T01:47:22;3.63;;;2.28;;
45909;SDS011;31622;55.416;37.840;2024-02-23T01:49:48;3.97;;;2.50;;
45909;SDS011;31622;55.416;37.840;2024-02-23T01:52:14;3.05;;;2.47;;
45909;SDS011;31622;55.416;37.840;2024-02-23T01:54:40;2.97;;;2.13;;
45909;SDS011;31622;55.416;37.840;2024-02-23T01:57:06;4.85;;;2.70;;
45909;SDS011;31622;55.416;37.840;2024-02-23T01:59:33;3.38;;;2.40;;
45909;SDS011;31622;55.416;37.840;2024-02-23T02:02:02;3.97;;;2.45;;
45909;SDS011;31622;55.416;37.840;2024-02-23T02:04:28;3.65;;;2.38;;
45909;SDS011;31622;55.416;37.840;2024-02-23T02:06:54;3.25;;;2.15;;
45909;SDS011;31622;55.416;37.840;2024-02-23T02:09:20;3.60;;;2.38;;
45909;SDS011;31622;55.416;37.840;2024-02-23T02:11:49;3.97;;;2.50;;
45909;SDS011;31622;55.416;37.840;2024-02-23T02:14:15;4.18;;;2.70;;
45909;SDS011;31622;55.416;37.840;2024-02-23T02:16:41;5.05;;;2.65;;
45909;SDS011;31622;55.416;37.840;2024-02-23T02:19:09;4.00;;;2.60;;
45909;SDS011;31622;55.416;37.840;2024-02-23T02:21:35;8.82;;;2.58;;
45909;SDS011;31622;55.416;37.840;2024-02-23T02:24:01;2.90;;;2.50;;
45909;SDS011;31622;55.416;37.840;2024-02-23T02:26:28;7.35;;;2.88;;
45909;SDS011;31622;55.416;37.840;2024-02-23T02:28:54;4.82;;;2.50;;
45909;SDS011;31622;55.416;37.840;2024-02-23T02:31:19;11.43;;;2.78;;
45909;SDS011;31622;55.416;37.840;2024-02-23T02:33:45;6.57;;;2.67;;
45909;SDS011;31622;55.416;37.840;2024-02-23T02:36:11;5.20;;;2.50;;
45909;SDS011;31622;55.416;37.840;2024-02-23T02:38:37;4.70;;;2.38;;
45909;SDS011;31622;55.416;37.840;2024-02-23T02:41:03;3.88;;;2.40;;
45909;SDS011;31622;55.416;37.840;2024-02-23T02:43:30;4.97;;;2.55;;
45909;SDS011;31622;55.416;37.840;2024-02-23T02:45:56;3.67;;;2.70;;
45909;SDS011;31622;55.416;37.840;2024-02-23T02:48:22;3.50;;;2.55;;
45909;SDS011;31622;55.416;37.840;2024-02-23T02:50:48;3.50;;;2.60;;
45909;SDS011;31622;55.416;37.840;2024-02-23T02:53:15;5.20;;;2.47;;
45909;SDS011;31622;55.416;37.840;2024-02-23T02:55:41;3.83;;;2.70;;
45909;SDS011;31622;55.416;37.840;2024-02-23T02:58:07;3.47;;;2.28;;
45909;SDS011;31622;55.416;37.840;2024-02-23T03:00:33;4.30;;;2.58;;
45909;SDS011;31622;55.416;37.840;2024-02-23T03:02:59;5.43;;;2.72;;
45909;SDS011;31622;55.416;37.840;2024-02-23T03:05:25;4.22;;;2.63;;
45909;SDS011;31622;55.416;37.840;2024-02-23T03:07:51;4.13;;;2.65;;
45909;SDS011;31622;55.416;37.840;2024-02-23T03:10:16;3.85;;;2.53;;
45909;SDS011;31622;55.416;37.840;2024-02-23T03:12:42;3.10;;;2.50;;
45909;SDS011;31622;55.416;37.840;2024-02-23T03:15:08;3.28;;;2.47;;
45909;SDS011;31622;55.416;37.840;2024-02-23T03:17:35;3.95;;;2.80;;
45909;SDS011;31622;55.416;37.840;2024-02-23T03:20:01;3.97;;;2.45;;
45909;SDS011;31622;55.416;37.840;2024-02-23T03:22:28;4.15;;;2.78;;
45909;SDS011;31622;55.416;37.840;2024-02-23T03:24:54;3.55;;;2.70;;
45909;SDS011;31622;55.416;37.840;2024-02-23T03:27:20;4.72;;;2.92;;
45909;SDS011;31622;55.416;37.840;2024-02-23T03:29:48;8.75;;;3.00;;
45909;SDS011;31622;55.416;37.840;2024-02-23T03:32:14;5.60;;;2.80;;
45909;SDS011;31622;55.416;37.840;2024-02-23T03:34:40;3.92;;;2.72;;
45909;SDS011;31622;55.416;37.840;2024-02-23T03:37:05;4.57;;;2.75;;
45909;SDS011;31622;55.416;37.840;2024-02-23T03:39:31;6.43;;;2.92;;
45909;SDS011;31622;55.416;37.840;2024-02-23T03:41:57;4.00;;;2.80;;
45909;SDS011;31622;55.416;37.840;2024-02-23T03:44:23;7.97;;;2.95;;
45909;SDS011;31622;55.416;37.840;2024-02-23T03:46:49;7.00;;;3.65;;
45909;SDS011;31622;55.416;37.840;2024-02-23T03:49:15;6.75;;;3.25;;
45909;SDS011;31622;55.416;37.840;2024-02-23T03:51:40;9.00;;;3.42;;
45909;SDS011;31622;55.416;37.840;2024-02-23T03:54:06;12.18;;;4.00;;
45909;SDS011;31622;55.416;37.840;2024-02-23T03:56:38;13.35;;;4.30;;
45909;SDS011;31622;55.416;37.840;2024-02-23T03:59:05;6.72;;;3.45;;
45909;SDS011;31622;55.416;37.840;2024-02-23T04:01:31;9.93;;;3.90;;
45909;SDS011;31622;55.416;37.840;2024-02-23T04:03:57;10.50;;;4.75;;
45909;SDS011;31622;55.416;37.840;2024-02-23T04:06:23;14.25;;;3.85;;
45909;SDS011;31622;55.416;37.840;2024-02-23T04:08:48;9.93;;;4.15;;
45909;SDS011;31622;55.416;37.840;2024-02-23T04:11:14;9.68;;;4.47;;
45909;SDS011;31622;55.416;37.840;2024-02-23T04:13:40;11.52;;;4.38;;
45909;SDS011;31622;55.416;37.840;2024-02-23T04:16:05;10.43;;;4.25;;
45909;SDS011;31622;55.416;37.840;2024-02-23T04:18:31;9.25;;;3.72;;
45909;SDS011;31622;55.416;37.840;2024-02-23T04:20:57;12.18;;;4.35;;
45909;SDS011;31622;55.416;37.840;2024-02-23T04:23:23;11.27;;;4.47;;
45909;SDS011;31622;55.416;37.840;2024-02-23T04:25:48;9.30;;;4.13;;
45909;SDS011;31622;55.416;37.840;2024-02-23T04:28:16;9.20;;;4.50;;
45909;SDS011;31622;55.416;37.840;2024-02-23T04:30:42;9.13;;;4.15;;
45909;SDS011;31622;55.416;37.840;2024-02-23T04:33:08;11.38;;;3.83;;
45909;SDS011;31622;55.416;37.840;2024-02-23T04:35:34;11.13;;;4.25;;
45909;SDS011;31622;55.416;37.840;2024-02-23T04:37:59;8.13;;;3.95;;
45909;SDS011;31622;55.416;37.840;2024-02-23T04:40:25;10.05;;;4.00;;
45909;SDS011;31622;55.416;37.840;2024-02-23T04:42:51;9.55;;;3.80;;
45909;SDS011;31622;55.416;37.840;2024-02-23T04:45:16;8.52;;;4.10;;
45909;SDS011;31622;55.416;37.840;2024-02-23T04:47:42;6.63;;;4.05;;
45909;SDS011;31622;55.416;37.840;2024-02-23T04:50:08;10.57;;;4.40;;
45909;SDS011;31622;55.416;37.840;2024-02-23T04:52:34;10.90;;;3.97;;
45909;SDS011;31622;55.416;37.840;2024-02-23T04:55:00;7.55;;;3.65;;
45909;SDS011;31622;55.416;37.840;2024-02-23T04:57:25;8.45;;;4.13;;
45909;SDS011;31622;55.416;37.840;2024-02-23T04:59:51;8.52;;;4.03;;
45909;SDS011;31622;55.416;37.840;2024-02-23T05:02:17;6.60;;;3.90;;
45909;SDS011;31622;55.416;37.840;2024-02-23T05:04:43;11.00;;;3.97;;
45909;SDS011;31622;55.416;37.840;2024-02-23T05:07:08;13.73;;;4.15;;
45909;SDS011;31622;55.416;37.840;2024-02-23T05:09:34;8.25;;;4.13;;
45909;SDS011;31622;55.416;37.840;2024-02-23T05:12:00;11.15;;;4.35;;
45909;SDS011;31622;55.416;37.840;2024-02-23T05:14:26;7.22;;;3.97;;
45909;SDS011;31622;55.416;37.840;2024-02-23T05:16:52;5.88;;;3.67;;
45909;SDS011;31622;55.416;37.840;2024-02-23T05:19:17;14.63;;;3.85;;
45909;SDS011;31622;55.416;37.840;2024-02-23T05:21:43;7.93;;;3.95;;
45909;SDS011;31622;55.416;37.840;2024-02-23T05:24:10;8.77;;;4.13;;
45909;SDS011;31622;55.416;37.840;2024-02-23T05:26:36;7.32;;;4.13;;
45909;SDS011;31622;55.416;37.840;2024-02-23T05:29:02;8.73;;;3.95;;
45909;SDS011;31622;55.416;37.840;2024-02-23T05:31:48;8.70;;;4.25;;
45909;SDS011;31622;55.416;37.840;2024-02-23T05:34:14;9.82;;;4.40;;
45909;SDS011;31622;55.416;37.840;2024-02-23T05:36:40;6.97;;;4.20;;
45909;SDS011;31622;55.416;37.840;2024-02-23T05:39:07;12.35;;;4.32;;
45909;SDS011;31622;55.416;37.840;2024-02-23T05:41:34;12.48;;;4.00;;
45909;SDS011;31622;55.416;37.840;2024-02-23T05:44:02;7.82;;;4.43;;
45909;SDS011;31622;55.416;37.840;2024-02-23T05:46:31;7.60;;;4.55;;
45909;SDS011;31622;55.416;37.840;2024-02-23T05:48:58;11.20;;;4.40;;
45909;SDS011;31622;55.416;37.840;2024-02-23T05:51:24;7.90;;;4.63;;
45909;SDS011;31622;55.416;37.840;2024-02-23T05:53:49;10.95;;;4.70;;
45909;SDS011;31622;55.416;37.840;2024-02-23T05:56:15;7.47;;;4.40;;
45909;SDS011;31622;55.416;37.840;2024-02-23T05:58:41;8.50;;;4.30;;
45909;SDS011;31622;55.416;37.840;2024-02-23T06:01:06;7.53;;;3.83;;
45909;SDS011;31622;55.416;37.840;2024-02-23T06:03:32;8.25;;;4.40;;
45909;SDS011;31622;55.416;37.840;2024-02-23T06:05:58;10.07;;;5.35;;
45909;SDS011;31622;55.416;37.840;2024-02-23T06:08:24;9.05;;;4.95;;
45909;SDS011;31622;55.416;37.840;2024-02-23T06:10:49;10.95;;;5.45;;
45909;SDS011;31622;55.416;37.840;2024-02-23T06:13:15;11.13;;;6.82;;
45909;SDS011;31622;55.416;37.840;2024-02-23T06:15:41;12.93;;;7.32;;
45909;SDS011;31622;55.416;37.840;2024-02-23T06:18:07;12.27;;;7.15;;
45909;SDS011;31622;55.416;37.840;2024-02-23T06:20:33;16.10;;;7.90;;
45909;SDS011;31622;55.416;37.840;2024-02-23T06:22:58;13.40;;;7.43;;
45909;SDS011;31622;55.416;37.840;2024-02-23T06:25:24;14.93;;;8.40;;
45909;SDS011;31622;55.416;37.840;2024-02-23T06:27:50;17.77;;;8.45;;
45909;SDS011;31622;55.416;37.840;2024-02-23T06:30:15;14.23;;;8.55;;
45909;SDS011;31622;55.416;37.840;2024-02-23T06:32:41;16.08;;;7.88;;
45909;SDS011;31622;55.416;37.840;2024-02-23T06:35:08;15.93;;;8.20;;
45909;SDS011;31622;55.416;37.840;2024-02-23T06:37:34;15.18;;;8.85;;
45909;SDS011;31622;55.416;37.840;2024-02-23T06:39:59;17.17;;;9.45;;
45909;SDS011;31622;55.416;37.840;2024-02-23T06:42:25;17.90;;;9.20;;
45909;SDS011;31622;55.416;37.840;2024-02-23T06:44:51;15.90;;;9.20;;
45909;SDS011;31622;55.416;37.840;2024-02-23T06:47:16;13.93;;;8.55;;
45909;SDS011;31622;55.416;37.840;2024-02-23T06:49:42;15.13;;;9.57;;
45909;SDS011;31622;55.416;37.840;2024-02-23T06:52:09;14.23;;;8.35;;
45909;SDS011;31622;55.416;37.840;2024-02-23T06:54:36;13.25;;;8.40;;
45909;SDS011;31622;55.416;37.840;2024-02-23T06:57:01;18.20;;;9.38;;
45909;SDS011;31622;55.416;37.840;2024-02-23T06:59:28;14.77;;;8.93;;
45909;SDS011;31622;55.416;37.840;2024-02-23T07:01:54;16.38;;;8.23;;
45909;SDS011;31622;55.416;37.840;2024-02-23T07:04:20;16.88;;;8.70;;
45909;SDS011;31622;55.416;37.840;2024-02-23T07:06:46;19.27;;;8.73;;
45909;SDS011;31622;55.416;37.840;2024-02-23T07:09:12;16.92;;;8.57;;
45909;SDS011;31622;55.416;37.840;2024-02-23T07:11:38;21.95;;;8.75;;
45909;SDS011;31622;55.416;37.840;2024-02-23T07:14:04;16.25;;;7.80;;
45909;SDS011;31622;55.416;37.840;2024-02-23T07:16:30;15.57;;;7.85;;
45909;SDS011;31622;55.416;37.840;2024-02-23T07:18:56;14.60;;;8.02;;
45909;SDS011;31622;55.416;37.840;2024-02-23T07:21:22;13.80;;;7.78;;
45909;SDS011;31622;55.416;37.840;2024-02-23T07:23:48;22.10;;;8.30;;
45909;SDS011;31622;55.416;37.840;2024-02-23T07:26:13;14.68;;;8.25;;
45909;SDS011;31622;55.416;37.840;2024-02-23T07:28:39;14.13;;;8.02;;
45909;SDS011;31622;55.416;37.840;2024-02-23T07:31:05;17.33;;;8.20;;
45909;SDS011;31622;55.416;37.840;2024-02-23T07:33:30;17.38;;;7.78;;
45909;SDS011;31622;55.416;37.840;2024-02-23T07:35:56;17.20;;;8.15;;
45909;SDS011;31622;55.416;37.840;2024-02-23T07:38:23;17.42;;;7.40;;
45909;SDS011;31622;55.416;37.840;2024-02-23T07:40:49;17.33;;;7.45;;
45909;SDS011;31622;55.416;37.840;2024-02-23T07:43:15;15.20;;;7.32;;
45909;SDS011;31622;55.416;37.840;2024-02-23T07:45:41;26.95;;;8.13;;
45909;SDS011;31622;55.416;37.840;2024-02-23T07:48:07;13.60;;;6.85;;
45909;SDS011;31622;55.416;37.840;2024-02-23T07:50:33;15.45;;;7.15;;
45909;SDS011;31622;55.416;37.840;2024-02-23T07:52:59;14.05;;;6.93;;
45909;SDS011;31622;55.416;37.840;2024-02-23T07:55:25;15.35;;;7.32;;
45909;SDS011;31622;55.416;37.840;2024-02-23T07:57:51;12.15;;;6.75;;
45909;SDS011;31622;55.416;37.840;2024-02-23T08:00:16;12.80;;;6.43;;
45909;SDS011;31622;55.416;37.840;2024-02-23T08:02:42;13.30;;;6.95;;
45909;SDS011;31622;55.416;37.840;2024-02-23T08:05:08;14.40;;;6.32;;
45909;SDS011;31622;55.416;37.840;2024-02-23T08:07:35;10.45;;;5.88;;
45909;SDS011;31622;55.416;37.840;2024-02-23T08:10:01;15.20;;;6.85;;
45909;SDS011;31622;55.416;37.840;2024-02-23T08:12:28;12.68;;;5.90;;
45909;SDS011;31622;55.416;37.840;2024-02-23T08:14:54;11.77;;;6.03;;
45909;SDS011;31622;55.416;37.840;2024-02-23T08:17:20;10.18;;;5.32;;
45909;SDS011;31622;55.416;37.840;2024-02-23T08:19:46;13.85;;;6.00;;
45909;SDS011;31622;55.416;37.840;2024-02-23T08:22:12;9.30;;;5.47;;
45909;SDS011;31622;55.416;37.840;2024-02-23T08:24:37;11.93;;;5.28;;
45909;SDS011;31622;55.416;37.840;2024-02-23T08:27:03;12.10;;;5.60;;
45909;SDS011;31622;55.416;37.840;2024-02-23T08:29:29;9.23;;;5.57;;
45909;SDS011;31622;55.416;37.840;2024-02-23T08:31:55;11.07;;;5.53;;
45909;SDS011;31622;55.416;37.840;2024-02-23T08:34:20;9.07;;;5.28;;
45909;SDS011;31622;55.416;37.840;2024-02-23T08:36:46;10.73;;;4.75;;
45909;SDS011;31622;55.416;37.840;2024-02-23T08:39:12;9.65;;;5.13;;
45909;SDS011;31622;55.416;37.840;2024-02-23T08:41:38;11.23;;;5.60;;
45909;SDS011;31622;55.416;37.840;2024-02-23T08:44:04;7.57;;;4.80;;
45909;SDS011;31622;55.416;37.840;2024-02-23T08:46:30;8.50;;;4.85;;
45909;SDS011;31622;55.416;37.840;2024-02-23T08:48:56;7.75;;;4.50;;
45909;SDS011;31622;55.416;37.840;2024-02-23T08:51:21;8.93;;;4.97;;
45909;SDS011;31622;55.416;37.840;2024-02-23T08:53:48;8.07;;;4.20;;
45909;SDS011;31622;55.416;37.840;2024-02-23T08:56:14;8.10;;;4.20;;
45909;SDS011;31622;55.416;37.840;2024-02-23T08:58:41;6.93;;;4.43;;
45909;SDS011;31622;55.416;37.840;2024-02-23T09:01:07;7.88;;;4.95;;
45909;SDS011;31622;55.416;37.840;2024-02-23T09:03:34;6.72;;;4.47;;
45909;SDS011;31622;55.416;37.840;2024-02-23T09:06:00;7.07;;;4.00;;
45909;SDS011;31622;55.416;37.840;2024-02-23T09:08:25;7.55;;;4.10;;
45909;SDS011;31622;55.416;37.840;2024-02-23T09:10:51;7.57;;;3.90;;
45909;SDS011;31622;55.416;37.840;2024-02-23T09:13:17;6.25;;;4.05;;
45909;SDS011;31622;55.416;37.840;2024-02-23T09:15:42;7.65;;;4.30;;
45909;SDS011;31622;55.416;37.840;2024-02-23T09:18:08;7.65;;;4.50;;
45909;SDS011;31622;55.416;37.840;2024-02-23T09:20:34;5.22;;;3.60;;
45909;SDS011;31622;55.416;37.840;2024-02-23T09:23:00;6.93;;;3.85;;
45909;SDS011;31622;55.416;37.840;2024-02-23T09:25:25;6.38;;;3.70;;
45909;SDS011;31622;55.416;37.840;2024-02-23T09:27:51;5.88;;;3.83;;
45909;SDS011;31622;55.416;37.840;2024-02-23T09:30:17;6.20;;;3.63;;
45909;SDS011;31622;55.416;37.840;2024-02-23T09:32:42;6.25;;;3.42;;
45909;SDS011;31622;55.416;37.840;2024-02-23T09:35:09;6.43;;;3.80;;
45909;SDS011;31622;55.416;37.840;2024-02-23T09:37:35;6.18;;;3.67;;
45909;SDS011;31622;55.416;37.840;2024-02-23T09:40:01;5.03;;;3.50;;
45909;SDS011;31622;55.416;37.840;2024-02-23T09:42:26;5.38;;;3.65;;
45909;SDS011;31622;55.416;37.840;2024-02-23T09:44:58;6.22;;;3.55;;
45909;SDS011;31622;55.416;37.840;2024-02-23T09:47:28;4.90;;;3.60;;
45909;SDS011;31622;55.416;37.840;2024-02-23T09:49:54;6.55;;;3.67;;
45909;SDS011;31622;55.416;37.840;2024-02-23T09:52:20;6.15;;;3.33;;
45909;SDS011;31622;55.416;37.840;2024-02-23T09:54:47;6.22;;;3.53;;
45909;SDS011;31622;55.416;37.840;2024-02-23T09:57:13;5.25;;;3.58;;
45909;SDS011;31622;55.416;37.840;2024-02-23T09:59:39;7.05;;;3.53;;
45909;SDS011;31622;55.416;37.840;2024-02-23T10:02:07;4.85;;;3.30;;
45909;SDS011;31622;55.416;37.840;2024-02-23T10:04:38;5.32;;;3.85;;
45909;SDS011;31622;55.416;37.840;2024-02-23T10:07:05;11.05;;;3.78;;
45909;SDS011;31622;55.416;37.840;2024-02-23T10:09:31;6.07;;;3.35;;
45909;SDS011;31622;55.416;37.840;2024-02-23T10:11:57;6.68;;;4.72;;
45909;SDS011;31622;55.416;37.840;2024-02-23T10:14:23;5.60;;;3.03;;
45909;SDS011;31622;55.416;37.840;2024-02-23T10:16:48;6.38;;;3.38;;
45909;SDS011;31622;55.416;37.840;2024-02-23T10:19:21;5.07;;;3.53;;
45909;SDS011;31622;55.416;37.840;2024-02-23T10:21:47;6.97;;;3.45;;
45909;SDS011;31622;55.416;37.840;2024-02-23T10:24:17;6.05;;;3.22;;
45909;SDS011;31622;55.416;37.840;2024-02-23T10:26:43;7.43;;;3.40;;
45909;SDS011;31622;55.416;37.840;2024-02-23T10:29:10;5.35;;;3.40;;
45909;SDS011;31622;55.416;37.840;2024-02-23T10:31:36;5.18;;;3.40;;
45909;SDS011;31622;55.416;37.840;2024-02-23T10:34:07;4.88;;;3.00;;
45909;SDS011;31622;55.416;37.840;2024-02-23T10:36:37;6.40;;;3.42;;
45909;SDS011;31622;55.416;37.840;2024-02-23T10:39:06;6.28;;;4.05;;
45909;SDS011;31622;55.416;37.840;2024-02-23T10:41:34;6.18;;;3.20;;
45909;SDS011;31622;55.416;37.840;2024-02-23T10:44:02;7.20;;;3.70;;
45909;SDS011;31622;55.416;37.840;2024-02-23T10:46:30;5.70;;;3.40;;
45909;SDS011;31622;55.416;37.840;2024-02-23T10:48:57;5.05;;;3.35;;
45909;SDS011;31622;55.416;37.840;2024-02-23T10:51:24;6.90;;;3.70;;
45909;SDS011;31622;55.416;37.840;2024-02-23T10:53:50;5.82;;;3.80;;
45909;SDS011;31622;55.416;37.840;2024-02-23T10:56:18;7.28;;;3.60;;
45909;SDS011;31622;55.416;37.840;2024-02-23T10:58:44;6.82;;;3.67;;
45909;SDS011;31622;55.416;37.840;2024-02-23T11:01:11;6.78;;;3.75;;
45909;SDS011;31622;55.416;37.840;2024-02-23T11:03:38;6.80;;;3.70;;
45909;SDS011;31622;55.416;37.840;2024-02-23T11:06:08;7.20;;;4.32;;
45909;SDS011;31622;55.416;37.840;2024-02-23T11:08:34;6.13;;;3.55;;
45909;SDS011;31622;55.416;37.840;2024-02-23T11:11:10;6.90;;;4.32;;
45909;SDS011;31622;55.416;37.840;2024-02-23T11:13:36;6.10;;;3.58;;
45909;SDS011;31622;55.416;37.840;2024-02-23T11:16:07;6.35;;;3.75;;
45909;SDS011;31622;55.416;37.840;2024-02-23T11:18:35;6.38;;;3.47;;
45909;SDS011;31622;55.416;37.840;2024-02-23T11:21:02;7.07;;;3.75;;
45909;SDS011;31622;55.416;37.840;2024-02-23T11:23:43;6.78;;;3.72;;
45909;SDS011;31622;55.416;37.840;2024-02-23T11:26:16;7.18;;;3.88;;
45909;SDS011;31622;55.416;37.840;2024-02-23T11:28:48;6.50;;;3.80;;
45909;SDS011;31622;55.416;37.840;2024-02-23T11:31:15;7.80;;;3.63;;
45909;SDS011;31622;55.416;37.840;2024-02-23T11:33:51;6.13;;;3.92;;
45909;SDS011;31622;55.416;37.840;2024-02-23T11:36:27;8.20;;;3.80;;
45909;SDS011;31622;55.416;37.840;2024-02-23T11:39:00;7.55;;;3.63;;
45909;SDS011;31622;55.416;37.840;2024-02-23T11:41:27;9.10;;;4.00;;
45909;SDS011;31622;55.416;37.840;2024-02-23T11:43:54;6.75;;;4.30;;
45909;SDS011;31622;55.416;37.840;2024-02-23T11:46:20;7.22;;;4.03;;
45909;SDS011;31622;55.416;37.840;2024-02-23T11:48:47;5.80;;;3.80;;
45909;SDS011;31622;55.416;37.840;2024-02-23T11:51:19;8.85;;;3.85;;
45909;SDS011;31622;55.416;37.840;2024-02-23T11:53:48;7.55;;;3.85;;
45909;SDS011;31622;55.416;37.840;2024-02-23T11:56:14;7.03;;;3.70;;
45909;SDS011;31622;55.416;37.840;2024-02-23T11:58:40;7.90;;;4.65;;
45909;SDS011;31622;55.416;37.840;2024-02-23T12:01:06;6.72;;;3.95;;
45909;SDS011;31622;55.416;37.840;2024-02-23T12:03:32;9.15;;;3.85;;
45909;SDS011;31622;55.416;37.840;2024-02-23T12:05:58;6.97;;;3.80;;
45909;SDS011;31622;55.416;37.840;2024-02-23T12:08:27;9.18;;;4.00;;
45909;SDS011;31622;55.416;37.840;2024-02-23T12:10:55;9.20;;;4.35;;
45909;SDS011;31622;55.416;37.840;2024-02-23T12:13:22;10.20;;;4.55;;
45909;SDS011;31622;55.416;37.840;2024-02-23T12:15:48;7.93;;;4.45;;
45909;SDS011;31622;55.416;37.840;2024-02-23T12:18:15;10.85;;;4.82;;
45909;SDS011;31622;55.416;37.840;2024-02-23T12:20:41;8.85;;;4.93;;
45909;SDS011;31622;55.416;37.840;2024-02-23T12:23:06;8.77;;;4.45;;
45909;SDS011;31622;55.416;37.840;2024-02-23T12:25:35;10.10;;;4.50;;
45909;SDS011;31622;55.416;37.840;2024-02-23T12:28:01;8.88;;;4.80;;
45909;SDS011;31622;55.416;37.840;2024-02-23T12:30:27;7.80;;;4.60;;
45909;SDS011;31622;55.416;37.840;2024-02-23T12:35:29;7.93;;;4.20;;
45909;SDS011;31622;55.416;37.840;2024-02-23T12:37:55;8.43;;;4.40;;
45909;SDS011;31622;55.416;37.840;2024-02-23T12:40:21;7.10;;;4.28;;
45909;SDS011;31622;55.416;37.840;2024-02-23T12:42:46;8.38;;;4.28;;
45909;SDS011;31622;55.416;37.840;2024-02-23T12:45:13;8.38;;;4.47;;
45909;SDS011;31622;55.416;37.840;2024-02-23T12:47:39;7.30;;;4.30;;
45909;SDS011;31622;55.416;37.840;2024-02-23T12:50:05;8.38;;;4.20;;
45909;SDS011;31622;55.416;37.840;2024-02-23T12:52:33;8.65;;;4.22;;
45909;SDS011;31622;55.416;37.840;2024-02-23T12:54:59;8.98;;;4.28;;
45909;SDS011;31622;55.416;37.840;2024-02-23T12:57:25;7.53;;;4.28;;
45909;SDS011;31622;55.416;37.840;2024-02-23T12:59:51;12.40;;;4.40;;
45909;SDS011;31622;55.416;37.840;2024-02-23T13:02:16;9.95;;;4.97;;
45909;SDS011;31622;55.416;37.840;2024-02-23T13:04:42;8.70;;;4.65;;
45909;SDS011;31622;55.416;37.840;2024-02-23T13:07:13;8.98;;;4.55;;
45909;SDS011;31622;55.416;37.840;2024-02-23T13:09:40;10.00;;;4.32;;
45909;SDS011;31622;55.416;37.840;2024-02-23T13:12:06;10.05;;;4.85;;
45909;SDS011;31622;55.416;37.840;2024-02-23T13:14:32;8.55;;;4.50;;
45909;SDS011;31622;55.416;37.840;2024-02-23T13:16:57;8.98;;;4.75;;
45909;SDS011;31622;55.416;37.840;2024-02-23T13:19:23;6.60;;;4.22;;
45909;SDS011;31622;55.416;37.840;2024-02-23T13:21:49;7.40;;;4.55;;
45909;SDS011;31622;55.416;37.840;2024-02-23T13:24:15;7.20;;;4.50;;
45909;SDS011;31622;55.416;37.840;2024-02-23T13:26:41;10.20;;;5.20;;
45909;SDS011;31622;55.416;37.840;2024-02-23T13:29:07;8.95;;;4.82;;
45909;SDS011;31622;55.416;37.840;2024-02-23T13:31:32;9.10;;;5.13;;
45909;SDS011;31622;55.416;37.840;2024-02-23T13:33:58;6.95;;;4.53;;
45909;SDS011;31622;55.416;37.840;2024-02-23T13:36:24;9.40;;;5.00;;
45909;SDS011;31622;55.416;37.840;2024-02-23T13:38:49;7.20;;;4.63;;
45909;SDS011;31622;55.416;37.840;2024-02-23T13:41:16;9.30;;;4.60;;
45909;SDS011;31622;55.416;37.840;2024-02-23T13:43:43;8.65;;;5.50;;
45909;SDS011;31622;55.416;37.840;2024-02-23T13:46:08;8.02;;;4.93;;
45909;SDS011;31622;55.416;37.840;2024-02-23T13:48:35;9.63;;;5.03;;
45909;SDS011;31622;55.416;37.840;2024-02-23T13:51:01;9.25;;;5.93;;
45909;SDS011;31622;55.416;37.840;2024-02-23T13:53:31;8.77;;;5.43;;
45909;SDS011;31622;55.416;37.840;2024-02-23T13:55:58;7.93;;;4.97;;
45909;SDS011;31622;55.416;37.840;2024-02-23T13:58:26;8.93;;;5.30;;
45909;SDS011;31622;55.416;37.840;2024-02-23T14:00:53;9.85;;;5.75;;
45909;SDS011;31622;55.416;37.840;2024-02-23T14:03:19;8.77;;;5.45;;
45909;SDS011;31622;55.416;37.840;2024-02-23T14:05:45;10.40;;;6.05;;
45909;SDS011;31622;55.416;37.840;2024-02-23T14:08:12;9.23;;;5.50;;
45909;SDS011;31622;55.416;37.840;2024-02-23T14:10:38;7.47;;;4.85;;
45909;SDS011;31622;55.416;37.840;2024-02-23T14:13:05;10.45;;;6.45;;
45909;SDS011;31622;55.416;37.840;2024-02-23T14:15:31;10.60;;;5.72;;
45909;SDS011;31622;55.416;37.840;2024-02-23T14:17:57;10.13;;;6.03;;
45909;SDS011;31622;55.416;37.840;2024-02-23T14:20:23;10.02;;;6.13;;
45909;SDS011;31622;55.416;37.840;2024-02-23T14:22:48;11.77;;;6.57;;
45909;SDS011;31622;55.416;37.840;2024-02-23T14:25:15;10.40;;;6.15;;
45909;SDS011;31622;55.416;37.840;2024-02-23T14:27:41;10.50;;;6.35;;
45909;SDS011;31622;55.416;37.840;2024-02-23T14:30:07;12.60;;;6.88;;